sensor_id;sensor_type;location;lat;lon;timestamp;P1;durP1;ratioP1;P2;durP2;ratioP2
45893;SDS011;31603;51.148;16.932;2023-03-03T00:00:03;210.98;;;47.65;;
45893;SDS011;31603;51.148;16.932;2023-03-03T00:02:34;216.98;;;46.35;;
45893;SDS011;31603;51.148;16.932;2023-03-03T00:05:01;283.13;;;54.88;;
45893;SDS011;31603;51.148;16.932;2023-03-03T00:07:28;308.58;;;54.20;;
45893;SDS011;31603;51.148;16.932;2023-03-03T00:09:55;309.92;;;49.40;;
45893;SDS011;31603;51.148;16.932;2023-03-03T00:12:23;255.80;;;46.80;;
45893;SDS011;31603;51.148;16.932;2023-03-03T00:14:52;222.85;;;45.58;;
45893;SDS011;31603;51.148;16.932;2023-03-03T00:17:20;151.93;;;39.88;;
45893;SDS011;31603;51.148;16.932;2023-03-03T00:19:50;153.38;;;39.88;;
45893;SDS011;31603;51.148;16.932;2023-03-03T00:22:20;196.77;;;45.53;;
45893;SDS011;31603;51.148;16.932;2023-03-03T00:24:54;186.43;;;44.03;;
45893;SDS011;31603;51.148;16.932;2023-03-03T00:27:26;243.07;;;45.40;;
45893;SDS011;31603;51.148;16.932;2023-03-03T00:32:22;188.75;;;42.15;;
45893;SDS011;31603;51.148;16.932;2023-03-03T00:34:53;160.93;;;39.72;;
45893;SDS011;31603;51.148;16.932;2023-03-03T00:37:30;234.95;;;43.55;;
45893;SDS011;31603;51.148;16.932;2023-03-03T00:39:58;332.90;;;50.47;;
45893;SDS011;31603;51.148;16.932;2023-03-03T00:42:38;286.55;;;45.03;;
45893;SDS011;31603;51.148;16.932;2023-03-03T00:45:15;270.42;;;47.13;;
45893;SDS011;31603;51.148;16.932;2023-03-03T00:47:49;231.38;;;46.13;;
45893;SDS011;31603;51.148;16.932;2023-03-03T00:50:20;185.23;;;36.40;;
45893;SDS011;31603;51.148;16.932;2023-03-03T00:52:58;204.43;;;43.13;;
45893;SDS011;31603;51.148;16.932;2023-03-03T00:55:27;185.15;;;38.92;;
45893;SDS011;31603;51.148;16.932;2023-03-03T00:57:54;234.90;;;37.58;;
45893;SDS011;31603;51.148;16.932;2023-03-03T01:00:20;325.10;;;46.17;;
45893;SDS011;31603;51.148;16.932;2023-03-03T01:02:55;201.63;;;40.53;;
45893;SDS011;31603;51.148;16.932;2023-03-03T01:05:23;159.38;;;35.25;;
45893;SDS011;31603;51.148;16.932;2023-03-03T01:07:50;191.35;;;39.53;;
45893;SDS011;31603;51.148;16.932;2023-03-03T01:10:16;242.10;;;42.90;;
45893;SDS011;31603;51.148;16.932;2023-03-03T01:12:47;187.98;;;41.05;;
45893;SDS011;31603;51.148;16.932;2023-03-03T01:15:14;152.32;;;38.45;;
45893;SDS011;31603;51.148;16.932;2023-03-03T01:17:41;140.13;;;38.35;;
45893;SDS011;31603;51.148;16.932;2023-03-03T01:20:09;161.90;;;41.20;;
45893;SDS011;31603;51.148;16.932;2023-03-03T01:22:40;119.30;;;35.75;;
45893;SDS011;31603;51.148;16.932;2023-03-03T01:25:06;120.50;;;35.22;;
45893;SDS011;31603;51.148;16.932;2023-03-03T01:27:34;158.43;;;39.85;;
45893;SDS011;31603;51.148;16.932;2023-03-03T01:30:01;128.40;;;34.35;;
45893;SDS011;31603;51.148;16.932;2023-03-03T01:32:42;136.15;;;35.33;;
45893;SDS011;31603;51.148;16.932;2023-03-03T01:35:09;140.25;;;36.85;;
45893;SDS011;31603;51.148;16.932;2023-03-03T01:37:37;119.55;;;34.70;;
45893;SDS011;31603;51.148;16.932;2023-03-03T01:49:04;167.27;;;35.95;;
45893;SDS011;31603;51.148;16.932;2023-03-03T01:51:37;146.00;;;38.13;;
45893;SDS011;31603;51.148;16.932;2023-03-03T01:54:09;124.68;;;34.28;;
45893;SDS011;31603;51.148;16.932;2023-03-03T01:56:40;120.03;;;33.92;;
45893;SDS011;31603;51.148;16.932;2023-03-03T01:59:08;120.75;;;32.35;;
45893;SDS011;31603;51.148;16.932;2023-03-03T02:04:07;112.25;;;33.17;;
45893;SDS011;31603;51.148;16.932;2023-03-03T02:06:36;222.52;;;38.72;;
45893;SDS011;31603;51.148;16.932;2023-03-03T02:09:06;122.20;;;33.30;;
45893;SDS011;31603;51.148;16.932;2023-03-03T02:11:38;145.48;;;38.67;;
45893;SDS011;31603;51.148;16.932;2023-03-03T02:14:07;169.90;;;37.60;;
45893;SDS011;31603;51.148;16.932;2023-03-03T02:16:35;262.35;;;41.58;;
45893;SDS011;31603;51.148;16.932;2023-03-03T02:28:00;312.27;;;46.90;;
45893;SDS011;31603;51.148;16.932;2023-03-03T02:30:41;211.30;;;41.28;;
45893;SDS011;31603;51.148;16.932;2023-03-03T02:33:09;169.25;;;38.88;;
45893;SDS011;31603;51.148;16.932;2023-03-03T02:38:20;188.15;;;42.22;;
45893;SDS011;31603;51.148;16.932;2023-03-03T02:41:01;173.38;;;41.65;;
45893;SDS011;31603;51.148;16.932;2023-03-03T03:01:58;163.85;;;38.13;;
45893;SDS011;31603;51.148;16.932;2023-03-03T03:04:56;155.18;;;37.35;;
45893;SDS011;31603;51.148;16.932;2023-03-03T03:07:36;140.98;;;35.40;;
45893;SDS011;31603;51.148;16.932;2023-03-03T03:10:08;185.85;;;39.95;;
45893;SDS011;31603;51.148;16.932;2023-03-03T03:12:54;150.27;;;38.05;;
45893;SDS011;31603;51.148;16.932;2023-03-03T03:18:04;163.70;;;38.15;;
45893;SDS011;31603;51.148;16.932;2023-03-03T03:20:53;184.43;;;40.63;;
45893;SDS011;31603;51.148;16.932;2023-03-03T03:23:20;147.65;;;38.50;;
45893;SDS011;31603;51.148;16.932;2023-03-03T03:26:00;158.13;;;37.70;;
45893;SDS011;31603;51.148;16.932;2023-03-03T03:28:28;152.23;;;38.13;;
45893;SDS011;31603;51.148;16.932;2023-03-03T03:30:55;173.30;;;40.72;;
45893;SDS011;31603;51.148;16.932;2023-03-03T03:33:22;149.45;;;38.58;;
45893;SDS011;31603;51.148;16.932;2023-03-03T03:35:59;190.40;;;43.65;;
45893;SDS011;31603;51.148;16.932;2023-03-03T03:38:28;231.57;;;42.63;;
45893;SDS011;31603;51.148;16.932;2023-03-03T03:40:56;209.57;;;43.47;;
45893;SDS011;31603;51.148;16.932;2023-03-03T03:43:26;173.25;;;43.15;;
45893;SDS011;31603;51.148;16.932;2023-03-03T03:45:59;126.97;;;37.78;;
45893;SDS011;31603;51.148;16.932;2023-03-03T03:48:39;139.75;;;39.42;;
45893;SDS011;31603;51.148;16.932;2023-03-03T03:51:06;168.77;;;39.70;;
45893;SDS011;31603;51.148;16.932;2023-03-03T03:53:36;132.27;;;37.47;;
45893;SDS011;31603;51.148;16.932;2023-03-03T03:56:11;125.20;;;35.90;;
45893;SDS011;31603;51.148;16.932;2023-03-03T03:59:05;154.52;;;40.75;;
45893;SDS011;31603;51.148;16.932;2023-03-03T04:01:47;120.53;;;33.30;;
45893;SDS011;31603;51.148;16.932;2023-03-03T04:04:14;129.98;;;35.67;;
45893;SDS011;31603;51.148;16.932;2023-03-03T04:06:56;151.45;;;37.72;;
45893;SDS011;31603;51.148;16.932;2023-03-03T04:09:24;146.38;;;35.28;;
45893;SDS011;31603;51.148;16.932;2023-03-03T04:11:58;141.52;;;37.58;;
45893;SDS011;31603;51.148;16.932;2023-03-03T04:14:40;113.47;;;32.35;;
45893;SDS011;31603;51.148;16.932;2023-03-03T04:17:07;131.75;;;31.35;;
45893;SDS011;31603;51.148;16.932;2023-03-03T04:19:36;119.40;;;34.33;;
45893;SDS011;31603;51.148;16.932;2023-03-03T04:22:02;136.30;;;36.72;;
45893;SDS011;31603;51.148;16.932;2023-03-03T04:24:43;117.63;;;30.98;;
45893;SDS011;31603;51.148;16.932;2023-03-03T04:27:12;132.05;;;30.85;;
45893;SDS011;31603;51.148;16.932;2023-03-03T04:29:41;124.25;;;30.45;;
45893;SDS011;31603;51.148;16.932;2023-03-03T04:32:07;131.60;;;29.40;;
45893;SDS011;31603;51.148;16.932;2023-03-03T04:34:34;126.88;;;29.75;;
45893;SDS011;31603;51.148;16.932;2023-03-03T04:37:01;92.53;;;25.95;;
45893;SDS011;31603;51.148;16.932;2023-03-03T04:39:41;105.50;;;28.90;;
45893;SDS011;31603;51.148;16.932;2023-03-03T04:42:08;110.38;;;29.48;;
45893;SDS011;31603;51.148;16.932;2023-03-03T04:44:50;109.57;;;29.38;;
45893;SDS011;31603;51.148;16.932;2023-03-03T04:47:17;107.40;;;27.80;;
45893;SDS011;31603;51.148;16.932;2023-03-03T04:49:44;127.10;;;31.10;;
45893;SDS011;31603;51.148;16.932;2023-03-03T04:52:10;105.20;;;28.65;;
45893;SDS011;31603;51.148;16.932;2023-03-03T04:54:37;86.97;;;24.70;;
45893;SDS011;31603;51.148;16.932;2023-03-03T04:57:03;75.60;;;21.67;;
45893;SDS011;31603;51.148;16.932;2023-03-03T04:59:33;83.72;;;23.33;;
45893;SDS011;31603;51.148;16.932;2023-03-03T05:10:56;69.85;;;19.23;;
45893;SDS011;31603;51.148;16.932;2023-03-03T05:13:37;63.33;;;18.70;;
45893;SDS011;31603;51.148;16.932;2023-03-03T05:16:04;63.58;;;16.17;;
45893;SDS011;31603;51.148;16.932;2023-03-03T05:18:32;64.25;;;18.15;;
45893;SDS011;31603;51.148;16.932;2023-03-03T05:20:58;67.32;;;18.63;;
45893;SDS011;31603;51.148;16.932;2023-03-03T05:23:26;68.22;;;19.83;;
45893;SDS011;31603;51.148;16.932;2023-03-03T05:25:53;57.33;;;16.63;;
45893;SDS011;31603;51.148;16.932;2023-03-03T05:28:31;58.58;;;18.10;;
45893;SDS011;31603;51.148;16.932;2023-03-03T05:30:59;53.35;;;14.63;;
45893;SDS011;31603;51.148;16.932;2023-03-03T05:33:40;63.67;;;16.85;;
45893;SDS011;31603;51.148;16.932;2023-03-03T05:36:07;59.42;;;16.00;;
45893;SDS011;31603;51.148;16.932;2023-03-03T05:38:51;61.22;;;18.35;;
45893;SDS011;31603;51.148;16.932;2023-03-03T05:41:18;58.90;;;14.75;;
45893;SDS011;31603;51.148;16.932;2023-03-03T05:43:57;42.67;;;15.05;;
45893;SDS011;31603;51.148;16.932;2023-03-03T05:46:39;69.55;;;18.70;;
45893;SDS011;31603;51.148;16.932;2023-03-03T05:49:06;72.25;;;19.67;;
45893;SDS011;31603;51.148;16.932;2023-03-03T05:51:49;80.47;;;18.92;;
45893;SDS011;31603;51.148;16.932;2023-03-03T05:54:16;66.45;;;19.75;;
45893;SDS011;31603;51.148;16.932;2023-03-03T05:56:56;60.72;;;17.30;;
45893;SDS011;31603;51.148;16.932;2023-03-03T05:59:43;76.72;;;19.50;;
45893;SDS011;31603;51.148;16.932;2023-03-03T06:02:10;68.53;;;17.85;;
45893;SDS011;31603;51.148;16.932;2023-03-03T06:04:37;51.83;;;15.10;;
45893;SDS011;31603;51.148;16.932;2023-03-03T06:07:03;51.75;;;14.93;;
45893;SDS011;31603;51.148;16.932;2023-03-03T06:09:31;53.78;;;14.02;;
45893;SDS011;31603;51.148;16.932;2023-03-03T06:11:57;54.40;;;14.38;;
45893;SDS011;31603;51.148;16.932;2023-03-03T06:14:34;52.05;;;13.80;;
45893;SDS011;31603;51.148;16.932;2023-03-03T06:17:03;96.03;;;19.95;;
45893;SDS011;31603;51.148;16.932;2023-03-03T06:19:45;58.20;;;19.40;;
45893;SDS011;31603;51.148;16.932;2023-03-03T06:22:12;65.40;;;17.90;;
45893;SDS011;31603;51.148;16.932;2023-03-03T06:24:40;71.20;;;18.13;;
45893;SDS011;31603;51.148;16.932;2023-03-03T06:27:07;64.55;;;16.08;;
45893;SDS011;31603;51.148;16.932;2023-03-03T06:29:49;52.95;;;14.15;;
45893;SDS011;31603;51.148;16.932;2023-03-03T06:32:24;47.67;;;14.93;;
45893;SDS011;31603;51.148;16.932;2023-03-03T06:34:51;55.55;;;16.10;;
45893;SDS011;31603;51.148;16.932;2023-03-03T06:37:18;54.03;;;14.43;;
45893;SDS011;31603;51.148;16.932;2023-03-03T06:39:45;69.07;;;16.80;;
45893;SDS011;31603;51.148;16.932;2023-03-03T06:42:11;54.22;;;14.70;;
45893;SDS011;31603;51.148;16.932;2023-03-03T06:44:39;48.58;;;14.82;;
45893;SDS011;31603;51.148;16.932;2023-03-03T06:47:06;71.60;;;17.90;;
45893;SDS011;31603;51.148;16.932;2023-03-03T06:49:34;68.40;;;17.00;;
45893;SDS011;31603;51.148;16.932;2023-03-03T06:52:04;66.53;;;17.65;;
45893;SDS011;31603;51.148;16.932;2023-03-03T06:54:51;72.03;;;18.70;;
45893;SDS011;31603;51.148;16.932;2023-03-03T06:57:23;62.08;;;17.20;;
45893;SDS011;31603;51.148;16.932;2023-03-03T06:59:56;63.40;;;16.88;;
45893;SDS011;31603;51.148;16.932;2023-03-03T07:02:25;67.90;;;20.17;;
45893;SDS011;31603;51.148;16.932;2023-03-03T07:04:53;68.40;;;17.70;;
45893;SDS011;31603;51.148;16.932;2023-03-03T07:07:23;77.45;;;18.85;;
45893;SDS011;31603;51.148;16.932;2023-03-03T07:09:57;71.18;;;17.95;;
45893;SDS011;31603;51.148;16.932;2023-03-03T07:12:37;85.15;;;20.75;;
45893;SDS011;31603;51.148;16.932;2023-03-03T07:15:11;67.40;;;17.33;;
45893;SDS011;31603;51.148;16.932;2023-03-03T07:17:55;90.38;;;19.33;;
45893;SDS011;31603;51.148;16.932;2023-03-03T07:20:29;61.95;;;17.65;;
45893;SDS011;31603;51.148;16.932;2023-03-03T07:23:17;70.97;;;18.38;;
45893;SDS011;31603;51.148;16.932;2023-03-03T07:25:52;61.67;;;16.23;;
45893;SDS011;31603;51.148;16.932;2023-03-03T07:28:21;59.42;;;15.82;;
45893;SDS011;31603;51.148;16.932;2023-03-03T07:30:49;84.15;;;18.42;;
45893;SDS011;31603;51.148;16.932;2023-03-03T07:33:18;70.85;;;17.80;;
45893;SDS011;31603;51.148;16.932;2023-03-03T07:38:59;61.38;;;16.67;;
45893;SDS011;31603;51.148;16.932;2023-03-03T07:41:29;42.10;;;12.45;;
45893;SDS011;31603;51.148;16.932;2023-03-03T07:44:03;61.70;;;16.42;;
45893;SDS011;31603;51.148;16.932;2023-03-03T07:46:33;60.03;;;14.70;;
45893;SDS011;31603;51.148;16.932;2023-03-03T07:49:11;60.53;;;15.73;;
45893;SDS011;31603;51.148;16.932;2023-03-03T07:52:15;54.97;;;14.95;;
45893;SDS011;31603;51.148;16.932;2023-03-03T07:54:56;53.83;;;14.73;;
45893;SDS011;31603;51.148;16.932;2023-03-03T07:57:40;61.15;;;16.05;;
45893;SDS011;31603;51.148;16.932;2023-03-03T08:03:08;47.38;;;15.57;;
45893;SDS011;31603;51.148;16.932;2023-03-03T08:05:42;53.83;;;15.48;;
45893;SDS011;31603;51.148;16.932;2023-03-03T08:11:03;49.47;;;14.23;;
45893;SDS011;31603;51.148;16.932;2023-03-03T08:13:44;57.95;;;15.57;;
45893;SDS011;31603;51.148;16.932;2023-03-03T08:16:21;48.75;;;14.65;;
45893;SDS011;31603;51.148;16.932;2023-03-03T08:19:02;46.97;;;14.98;;
45893;SDS011;31603;51.148;16.932;2023-03-03T08:21:45;60.85;;;16.52;;
45893;SDS011;31603;51.148;16.932;2023-03-03T08:26:56;51.50;;;14.25;;
45893;SDS011;31603;51.148;16.932;2023-03-03T08:29:23;52.67;;;15.90;;
45893;SDS011;31603;51.148;16.932;2023-03-03T08:31:58;61.03;;;16.45;;
45893;SDS011;31603;51.148;16.932;2023-03-03T08:34:26;44.28;;;15.32;;
45893;SDS011;31603;51.148;16.932;2023-03-03T08:36:53;57.58;;;15.43;;
45893;SDS011;31603;51.148;16.932;2023-03-03T08:39:22;44.35;;;14.40;;
45893;SDS011;31603;51.148;16.932;2023-03-03T08:41:50;50.65;;;16.52;;
45893;SDS011;31603;51.148;16.932;2023-03-03T08:44:17;45.97;;;16.27;;
45893;SDS011;31603;51.148;16.932;2023-03-03T08:46:58;54.10;;;16.45;;
45893;SDS011;31603;51.148;16.932;2023-03-03T08:49:39;47.22;;;16.10;;
45893;SDS011;31603;51.148;16.932;2023-03-03T08:52:06;43.90;;;16.23;;
45893;SDS011;31603;51.148;16.932;2023-03-03T08:54:47;82.43;;;19.30;;
45893;SDS011;31603;51.148;16.932;2023-03-03T09:00:25;62.05;;;19.13;;
45893;SDS011;31603;51.148;16.932;2023-03-03T09:02:52;58.25;;;19.33;;
45893;SDS011;31603;51.148;16.932;2023-03-03T09:05:19;57.35;;;16.27;;
45893;SDS011;31603;51.148;16.932;2023-03-03T09:07:52;65.05;;;19.33;;
45893;SDS011;31603;51.148;16.932;2023-03-03T09:10:21;58.88;;;18.58;;
45893;SDS011;31603;51.148;16.932;2023-03-03T09:12:56;65.70;;;17.73;;
45893;SDS011;31603;51.148;16.932;2023-03-03T09:15:28;53.42;;;19.83;;
45893;SDS011;31603;51.148;16.932;2023-03-03T09:17:56;62.45;;;17.88;;
45893;SDS011;31603;51.148;16.932;2023-03-03T09:20:27;57.95;;;18.48;;
45893;SDS011;31603;51.148;16.932;2023-03-03T09:22:58;64.65;;;18.30;;
45893;SDS011;31603;51.148;16.932;2023-03-03T09:25:27;55.25;;;17.52;;
45893;SDS011;31603;51.148;16.932;2023-03-03T09:27:59;68.78;;;20.13;;
45893;SDS011;31603;51.148;16.932;2023-03-03T09:30:36;67.75;;;19.42;;
45893;SDS011;31603;51.148;16.932;2023-03-03T09:33:22;64.45;;;18.95;;
45893;SDS011;31603;51.148;16.932;2023-03-03T09:36:03;55.88;;;17.25;;
45893;SDS011;31603;51.148;16.932;2023-03-03T09:38:44;56.03;;;18.80;;
45893;SDS011;31603;51.148;16.932;2023-03-03T09:41:30;57.25;;;17.77;;
45893;SDS011;31603;51.148;16.932;2023-03-03T09:44:17;49.67;;;16.00;;
45893;SDS011;31603;51.148;16.932;2023-03-03T09:47:00;64.35;;;17.83;;
45893;SDS011;31603;51.148;16.932;2023-03-03T09:49:38;52.13;;;15.57;;
45893;SDS011;31603;51.148;16.932;2023-03-03T09:52:21;61.35;;;14.73;;
45893;SDS011;31603;51.148;16.932;2023-03-03T09:55:03;61.33;;;17.42;;
45893;SDS011;31603;51.148;16.932;2023-03-03T09:57:46;49.15;;;15.93;;
45893;SDS011;31603;51.148;16.932;2023-03-03T10:00:26;48.73;;;17.67;;
45893;SDS011;31603;51.148;16.932;2023-03-03T10:06:00;55.53;;;17.67;;
45893;SDS011;31603;51.148;16.932;2023-03-03T10:08:32;53.75;;;17.75;;
45893;SDS011;31603;51.148;16.932;2023-03-03T10:11:12;51.03;;;17.27;;
45893;SDS011;31603;51.148;16.932;2023-03-03T10:16:57;46.35;;;16.48;;
45893;SDS011;31603;51.148;16.932;2023-03-03T10:19:40;47.03;;;15.10;;
45893;SDS011;31603;51.148;16.932;2023-03-03T10:22:16;43.65;;;14.63;;
45893;SDS011;31603;51.148;16.932;2023-03-03T10:24:52;58.63;;;18.05;;
45893;SDS011;31603;51.148;16.932;2023-03-03T10:27:42;48.40;;;18.05;;
45893;SDS011;31603;51.148;16.932;2023-03-03T10:30:16;57.40;;;19.55;;
45893;SDS011;31603;51.148;16.932;2023-03-03T10:32:51;47.30;;;15.35;;
45893;SDS011;31603;51.148;16.932;2023-03-03T10:35:34;50.80;;;17.50;;
45893;SDS011;31603;51.148;16.932;2023-03-03T10:38:13;49.33;;;17.08;;
45893;SDS011;31603;51.148;16.932;2023-03-03T10:40:49;45.92;;;16.20;;
45893;SDS011;31603;51.148;16.932;2023-03-03T10:43:41;45.53;;;15.20;;
45893;SDS011;31603;51.148;16.932;2023-03-03T10:46:25;53.50;;;16.02;;
45893;SDS011;31603;51.148;16.932;2023-03-03T10:49:10;65.97;;;18.63;;
45893;SDS011;31603;51.148;16.932;2023-03-03T10:51:51;61.40;;;17.52;;
45893;SDS011;31603;51.148;16.932;2023-03-03T10:54:32;51.00;;;16.42;;
45893;SDS011;31603;51.148;16.932;2023-03-03T10:57:13;54.72;;;16.45;;
45893;SDS011;31603;51.148;16.932;2023-03-03T10:59:49;45.10;;;13.30;;
45893;SDS011;31603;51.148;16.932;2023-03-03T11:02:27;43.63;;;13.70;;
45893;SDS011;31603;51.148;16.932;2023-03-03T11:05:03;47.45;;;14.35;;
45893;SDS011;31603;51.148;16.932;2023-03-03T11:07:43;33.83;;;13.02;;
45893;SDS011;31603;51.148;16.932;2023-03-03T11:10:17;31.33;;;11.95;;
45893;SDS011;31603;51.148;16.932;2023-03-03T11:13:02;34.20;;;12.82;;
45893;SDS011;31603;51.148;16.932;2023-03-03T11:15:46;34.33;;;13.30;;
45893;SDS011;31603;51.148;16.932;2023-03-03T11:18:24;35.97;;;14.43;;
45893;SDS011;31603;51.148;16.932;2023-03-03T11:21:01;43.75;;;17.00;;
45893;SDS011;31603;51.148;16.932;2023-03-03T11:23:45;43.40;;;17.05;;
45893;SDS011;31603;51.148;16.932;2023-03-03T11:26:23;32.05;;;13.73;;
45893;SDS011;31603;51.148;16.932;2023-03-03T11:29:04;30.67;;;11.40;;
45893;SDS011;31603;51.148;16.932;2023-03-03T11:31:45;49.47;;;15.13;;
45893;SDS011;31603;51.148;16.932;2023-03-03T11:34:16;44.15;;;13.45;;
45893;SDS011;31603;51.148;16.932;2023-03-03T11:36:54;50.38;;;14.55;;
45893;SDS011;31603;51.148;16.932;2023-03-03T11:39:28;37.70;;;12.68;;
45893;SDS011;31603;51.148;16.932;2023-03-03T11:41:57;45.25;;;14.00;;
45893;SDS011;31603;51.148;16.932;2023-03-03T11:44:31;38.30;;;12.65;;
45893;SDS011;31603;51.148;16.932;2023-03-03T11:47:02;37.10;;;11.75;;
45893;SDS011;31603;51.148;16.932;2023-03-03T11:49:33;38.80;;;14.93;;
45893;SDS011;31603;51.148;16.932;2023-03-03T11:52:10;49.80;;;16.98;;
45893;SDS011;31603;51.148;16.932;2023-03-03T11:54:49;44.58;;;14.70;;
45893;SDS011;31603;51.148;16.932;2023-03-03T11:57:20;41.75;;;14.70;;
45893;SDS011;31603;51.148;16.932;2023-03-03T11:59:55;36.00;;;13.73;;
45893;SDS011;31603;51.148;16.932;2023-03-03T12:02:32;34.38;;;13.00;;
45893;SDS011;31603;51.148;16.932;2023-03-03T12:05:17;29.70;;;12.10;;
45893;SDS011;31603;51.148;16.932;2023-03-03T12:07:58;29.23;;;12.18;;
45893;SDS011;31603;51.148;16.932;2023-03-03T12:10:35;35.97;;;14.23;;
45893;SDS011;31603;51.148;16.932;2023-03-03T12:13:11;33.08;;;13.45;;
45893;SDS011;31603;51.148;16.932;2023-03-03T12:15:46;35.33;;;14.00;;
45893;SDS011;31603;51.148;16.932;2023-03-03T12:18:26;31.65;;;13.80;;
45893;SDS011;31603;51.148;16.932;2023-03-03T12:21:10;36.55;;;14.63;;
45893;SDS011;31603;51.148;16.932;2023-03-03T12:23:47;31.20;;;13.52;;
45893;SDS011;31603;51.148;16.932;2023-03-03T12:26:47;28.75;;;13.82;;
45893;SDS011;31603;51.148;16.932;2023-03-03T12:29:24;33.42;;;14.27;;
45893;SDS011;31603;51.148;16.932;2023-03-03T12:31:54;35.67;;;14.23;;
45893;SDS011;31603;51.148;16.932;2023-03-03T12:34:33;33.72;;;12.40;;
45893;SDS011;31603;51.148;16.932;2023-03-03T12:37:18;30.65;;;13.38;;
45893;SDS011;31603;51.148;16.932;2023-03-03T12:39:55;31.48;;;13.18;;
45893;SDS011;31603;51.148;16.932;2023-03-03T12:42:39;28.25;;;11.70;;
45893;SDS011;31603;51.148;16.932;2023-03-03T12:45:26;29.50;;;11.38;;
45893;SDS011;31603;51.148;16.932;2023-03-03T12:48:04;24.83;;;11.18;;
45893;SDS011;31603;51.148;16.932;2023-03-03T12:50:37;26.10;;;10.57;;
45893;SDS011;31603;51.148;16.932;2023-03-03T12:53:17;26.58;;;12.05;;
45893;SDS011;31603;51.148;16.932;2023-03-03T12:55:51;30.70;;;12.27;;
45893;SDS011;31603;51.148;16.932;2023-03-03T12:58:29;28.45;;;11.52;;
45893;SDS011;31603;51.148;16.932;2023-03-03T13:01:08;28.27;;;11.90;;
45893;SDS011;31603;51.148;16.932;2023-03-03T13:03:48;27.97;;;12.67;;
45893;SDS011;31603;51.148;16.932;2023-03-03T13:06:22;24.08;;;11.77;;
45893;SDS011;31603;51.148;16.932;2023-03-03T13:09:00;24.90;;;11.40;;
45893;SDS011;31603;51.148;16.932;2023-03-03T13:11:50;29.80;;;13.23;;
45893;SDS011;31603;51.148;16.932;2023-03-03T13:14:29;29.23;;;12.38;;
45893;SDS011;31603;51.148;16.932;2023-03-03T13:17:02;21.58;;;9.82;;
45893;SDS011;31603;51.148;16.932;2023-03-03T13:19:37;28.25;;;12.35;;
45893;SDS011;31603;51.148;16.932;2023-03-03T13:22:09;31.75;;;13.23;;
45893;SDS011;31603;51.148;16.932;2023-03-03T13:24:44;31.42;;;12.57;;
45893;SDS011;31603;51.148;16.932;2023-03-03T13:27:21;33.08;;;14.07;;
45893;SDS011;31603;51.148;16.932;2023-03-03T13:29:55;35.92;;;14.80;;
45893;SDS011;31603;51.148;16.932;2023-03-03T13:32:27;29.20;;;13.02;;
45893;SDS011;31603;51.148;16.932;2023-03-03T13:35:00;32.65;;;14.73;;
45893;SDS011;31603;51.148;16.932;2023-03-03T13:37:32;34.03;;;14.77;;
45893;SDS011;31603;51.148;16.932;2023-03-03T13:40:04;31.35;;;15.25;;
45893;SDS011;31603;51.148;16.932;2023-03-03T13:42:36;32.50;;;14.82;;
45893;SDS011;31603;51.148;16.932;2023-03-03T13:45:12;31.77;;;13.60;;
45893;SDS011;31603;51.148;16.932;2023-03-03T13:47:45;33.80;;;13.90;;
45893;SDS011;31603;51.148;16.932;2023-03-03T13:50:21;32.20;;;13.98;;
45893;SDS011;31603;51.148;16.932;2023-03-03T13:52:54;27.65;;;12.50;;
45893;SDS011;31603;51.148;16.932;2023-03-03T13:55:31;30.95;;;14.05;;
45893;SDS011;31603;51.148;16.932;2023-03-03T13:58:02;34.95;;;14.10;;
45893;SDS011;31603;51.148;16.932;2023-03-03T14:00:45;33.25;;;14.30;;
45893;SDS011;31603;51.148;16.932;2023-03-03T14:03:24;27.38;;;12.15;;
45893;SDS011;31603;51.148;16.932;2023-03-03T14:06:07;31.70;;;14.68;;
45893;SDS011;31603;51.148;16.932;2023-03-03T14:08:48;29.33;;;13.73;;
45893;SDS011;31603;51.148;16.932;2023-03-03T14:11:24;28.85;;;13.15;;
45893;SDS011;31603;51.148;16.932;2023-03-03T14:13:57;31.17;;;13.50;;
45893;SDS011;31603;51.148;16.932;2023-03-03T14:16:35;26.90;;;12.35;;
45893;SDS011;31603;51.148;16.932;2023-03-03T14:19:09;26.50;;;11.40;;
45893;SDS011;31603;51.148;16.932;2023-03-03T14:21:42;24.95;;;10.90;;
45893;SDS011;31603;51.148;16.932;2023-03-03T14:24:15;27.25;;;12.13;;
45893;SDS011;31603;51.148;16.932;2023-03-03T14:26:46;22.83;;;10.02;;
45893;SDS011;31603;51.148;16.932;2023-03-03T14:29:19;20.10;;;9.57;;
45893;SDS011;31603;51.148;16.932;2023-03-03T14:31:49;24.33;;;10.82;;
45893;SDS011;31603;51.148;16.932;2023-03-03T14:34:36;20.73;;;10.98;;
45893;SDS011;31603;51.148;16.932;2023-03-03T14:37:18;24.40;;;10.60;;
45893;SDS011;31603;51.148;16.932;2023-03-03T14:39:50;23.50;;;11.23;;
45893;SDS011;31603;51.148;16.932;2023-03-03T14:42:30;21.38;;;10.50;;
45893;SDS011;31603;51.148;16.932;2023-03-03T14:45:01;23.25;;;9.77;;
45893;SDS011;31603;51.148;16.932;2023-03-03T14:47:45;23.67;;;11.13;;
45893;SDS011;31603;51.148;16.932;2023-03-03T14:50:33;21.67;;;10.40;;
45893;SDS011;31603;51.148;16.932;2023-03-03T14:53:06;26.80;;;12.57;;
45893;SDS011;31603;51.148;16.932;2023-03-03T14:55:51;29.13;;;12.18;;
45893;SDS011;31603;51.148;16.932;2023-03-03T14:58:26;31.75;;;12.88;;
45893;SDS011;31603;51.148;16.932;2023-03-03T15:01:07;28.05;;;13.88;;
45893;SDS011;31603;51.148;16.932;2023-03-03T15:03:44;28.50;;;12.13;;
45893;SDS011;31603;51.148;16.932;2023-03-03T15:06:16;27.13;;;13.05;;
45893;SDS011;31603;51.148;16.932;2023-03-03T15:12:16;29.40;;;13.48;;
45893;SDS011;31603;51.148;16.932;2023-03-03T15:14:46;28.92;;;13.07;;
45893;SDS011;31603;51.148;16.932;2023-03-03T15:17:23;32.70;;;15.02;;
45893;SDS011;31603;51.148;16.932;2023-03-03T15:25:58;31.63;;;16.45;;
45893;SDS011;31603;51.148;16.932;2023-03-03T15:28:33;27.83;;;14.55;;
45893;SDS011;31603;51.148;16.932;2023-03-03T15:31:09;31.50;;;16.17;;
45893;SDS011;31603;51.148;16.932;2023-03-03T15:33:51;29.17;;;15.48;;
45893;SDS011;31603;51.148;16.932;2023-03-03T15:36:33;29.60;;;14.63;;
45893;SDS011;31603;51.148;16.932;2023-03-03T15:39:07;29.08;;;14.70;;
45893;SDS011;31603;51.148;16.932;2023-03-03T15:41:42;31.40;;;16.00;;
45893;SDS011;31603;51.148;16.932;2023-03-03T15:44:13;25.38;;;12.13;;
45893;SDS011;31603;51.148;16.932;2023-03-03T15:46:48;27.27;;;14.80;;
45893;SDS011;31603;51.148;16.932;2023-03-03T15:49:26;29.42;;;15.55;;
45893;SDS011;31603;51.148;16.932;2023-03-03T15:52:14;29.35;;;14.85;;
45893;SDS011;31603;51.148;16.932;2023-03-03T15:54:59;26.35;;;14.25;;
45893;SDS011;31603;51.148;16.932;2023-03-03T15:57:40;33.30;;;16.10;;
45893;SDS011;31603;51.148;16.932;2023-03-03T16:00:24;31.30;;;15.25;;
45893;SDS011;31603;51.148;16.932;2023-03-03T16:03:04;29.50;;;15.60;;
45893;SDS011;31603;51.148;16.932;2023-03-03T16:05:39;37.25;;;17.88;;
45893;SDS011;31603;51.148;16.932;2023-03-03T16:08:18;32.70;;;15.75;;
45893;SDS011;31603;51.148;16.932;2023-03-03T16:10:51;35.08;;;17.48;;
45893;SDS011;31603;51.148;16.932;2023-03-03T16:13:31;37.10;;;18.33;;